createdAt,value
2023-02-19T00:00:26.496Z,18.79
2023-02-19T00:05:53.165Z,18.81
2023-02-19T00:08:26.148Z,18.81
2023-02-19T00:10:52.485Z,18.81
2023-02-19T00:13:25.150Z,18.80
2023-02-19T00:15:51.478Z,18.76
2023-02-19T00:21:18.156Z,18.83
2023-02-19T00:23:51.186Z,18.76
2023-02-19T00:26:18.908Z,18.80
2023-02-19T00:28:52.156Z,18.76
2023-02-19T00:31:18.621Z,18.77
2023-02-19T00:33:54.151Z,18.74
2023-02-19T00:36:20.507Z,18.75
2023-02-19T00:38:46.820Z,18.74
2023-02-19T00:41:19.270Z,18.82
2023-02-19T00:43:45.637Z,18.80
2023-02-19T00:46:18.240Z,18.78
2023-02-19T00:51:37.202Z,18.75
2023-02-19T00:54:03.524Z,18.80
2023-02-19T00:56:36.201Z,18.76
2023-02-19T00:59:02.539Z,18.74
2023-02-19T01:01:35.203Z,18.77
2023-02-19T01:06:52.171Z,18.78
2023-02-19T01:09:18.473Z,18.78
2023-02-19T01:11:51.180Z,18.74
2023-02-19T01:14:17.489Z,18.76
2023-02-19T01:16:43.793Z,18.73
2023-02-19T01:22:10.186Z,18.75
2023-02-19T01:24:43.186Z,18.78
2023-02-19T01:27:09.492Z,18.74
2023-02-19T01:29:45.182Z,18.76
2023-02-19T01:32:11.617Z,18.74
2023-02-19T01:34:47.216Z,18.78
2023-02-19T01:37:13.546Z,18.79
2023-02-19T01:39:49.193Z,18.84
2023-02-19T01:42:15.496Z,18.80
2023-02-19T01:44:51.199Z,18.74
2023-02-19T01:47:17.508Z,18.79
2023-02-19T01:52:37.193Z,18.82
2023-02-19T01:55:10.220Z,18.74
2023-02-19T01:57:39.318Z,18.76
2023-02-19T02:00:12.196Z,18.76
2023-02-19T02:02:41.317Z,18.76
2023-02-19T02:05:17.198Z,18.73
2023-02-19T02:07:46.300Z,18.76
2023-02-19T02:10:19.208Z,18.80
2023-02-19T02:12:45.494Z,18.80
2023-02-19T02:15:11.796Z,18.74
2023-02-19T02:17:47.203Z,18.75
2023-02-19T02:23:06.225Z,18.74
2023-02-19T02:25:35.343Z,18.71
2023-02-19T02:28:08.218Z,18.76
2023-02-19T02:30:35.967Z,18.72
2023-02-19T02:33:09.210Z,18.74
2023-02-19T02:35:38.304Z,18.75
2023-02-19T02:38:14.208Z,18.69
2023-02-19T02:40:43.313Z,18.71
2023-02-19T02:43:16.236Z,18.69
2023-02-19T02:45:45.357Z,18.74
2023-02-19T02:54:08.225Z,18.68
2023-02-19T02:56:34.527Z,18.67
2023-02-19T02:59:07.218Z,18.73
2023-02-19T03:01:33.535Z,18.69
2023-02-19T03:03:59.832Z,18.71
2023-02-19T03:06:35.252Z,18.71
2023-02-19T03:09:01.587Z,18.65
2023-02-19T03:11:37.218Z,18.72
2023-02-19T03:14:06.348Z,18.65
2023-02-19T03:16:42.997Z,18.64
2023-02-19T03:19:09.375Z,18.69
2023-02-19T03:21:45.228Z,18.74
2023-02-19T03:24:11.553Z,18.66
2023-02-19T03:26:37.853Z,18.64
2023-02-19T03:29:10.257Z,18.70
2023-02-19T03:31:39.496Z,18.66
2023-02-19T03:34:12.259Z,18.68
2023-02-19T03:36:38.540Z,18.71
2023-02-19T03:39:11.246Z,18.73
2023-02-19T03:41:37.531Z,18.66
2023-02-19T03:44:13.240Z,18.64
2023-02-19T03:46:42.332Z,18.64
2023-02-19T03:49:15.243Z,18.69
2023-02-19T03:54:34.251Z,18.67
2023-02-19T03:57:00.561Z,18.67
2023-02-19T03:59:26.851Z,18.64
2023-02-19T04:02:02.322Z,18.63
2023-02-19T04:04:28.659Z,18.56
2023-02-19T04:09:58.242Z,18.62
2023-02-19T04:12:34.275Z,18.64
2023-02-19T04:15:00.571Z,18.62
2023-02-19T04:17:33.268Z,18.63
2023-02-19T04:19:59.572Z,18.64
2023-02-19T04:22:35.258Z,18.62
2023-02-19T04:25:04.392Z,18.58
2023-02-19T04:27:37.294Z,18.61
2023-02-19T04:30:06.433Z,18.62
2023-02-19T04:32:42.280Z,18.66
2023-02-19T04:35:08.594Z,18.66
2023-02-19T04:37:44.282Z,18.61
2023-02-19T04:40:13.388Z,18.60
2023-02-19T04:42:49.263Z,18.63
2023-02-19T04:45:15.571Z,18.59
2023-02-19T04:47:41.872Z,18.57
2023-02-19T04:56:07.265Z,18.55
2023-02-19T04:58:43.280Z,18.60
2023-02-19T05:01:09.908Z,18.61
2023-02-19T05:03:46.288Z,18.61
2023-02-19T05:06:12.589Z,18.61
2023-02-19T05:08:48.272Z,18.65
2023-02-19T05:11:14.592Z,18.60
2023-02-19T05:13:50.270Z,18.58
2023-02-19T05:16:16.571Z,18.61
2023-02-19T05:18:52.295Z,18.62
2023-02-19T05:21:18.601Z,18.58
2023-02-19T05:23:54.301Z,18.57
2023-02-19T05:26:23.405Z,18.63
2023-02-19T05:28:59.307Z,18.66
2023-02-19T05:31:28.501Z,18.68
2023-02-19T05:34:04.286Z,18.63
2023-02-19T05:36:30.577Z,18.64
2023-02-19T05:39:06.331Z,18.62
2023-02-19T05:41:35.448Z,18.62
2023-02-19T05:44:11.311Z,18.62
2023-02-19T05:46:40.475Z,18.70
2023-02-19T05:49:13.302Z,18.77
2023-02-19T05:51:39.583Z,18.72
2023-02-19T05:54:06.080Z,18.72
2023-02-19T05:56:41.319Z,18.73
2023-02-19T05:59:07.671Z,18.69
2023-02-19T06:01:43.310Z,18.66
2023-02-19T06:04:09.693Z,18.62
2023-02-19T06:06:36.097Z,18.62
2023-02-19T06:09:09.312Z,18.62
2023-02-19T06:11:35.915Z,18.62
2023-02-19T06:14:08.310Z,18.61
2023-02-19T06:16:34.702Z,18.63
2023-02-19T06:19:01.028Z,18.61
2023-02-19T06:27:22.301Z,18.63
2023-02-19T06:29:48.659Z,18.61
2023-02-19T06:32:15.051Z,18.61
2023-02-19T06:34:50.323Z,18.65
2023-02-19T06:37:16.672Z,18.64
2023-02-19T06:39:42.968Z,18.67
2023-02-19T06:42:15.323Z,18.68
2023-02-19T06:44:41.872Z,18.70
2023-02-19T06:47:14.664Z,18.74
2023-02-19T06:49:41.265Z,18.76
2023-02-19T06:52:07.655Z,18.76
2023-02-19T06:54:40.337Z,18.73
2023-02-19T06:57:06.692Z,18.75
2023-02-19T06:59:39.327Z,18.78
2023-02-19T07:02:05.706Z,18.77
2023-02-19T07:04:32.033Z,18.73
2023-02-19T07:07:05.338Z,18.78
2023-02-19T07:12:21.323Z,18.74
2023-02-19T07:14:48.688Z,18.77
2023-02-19T07:17:21.334Z,18.79
2023-02-19T07:19:47.708Z,18.78
2023-02-19T07:22:14.190Z,18.78
2023-02-19T07:27:41.347Z,18.77
2023-02-19T07:30:14.376Z,18.78
2023-02-19T07:32:40.848Z,18.44
2023-02-19T07:35:13.351Z,17.33
2023-02-19T07:37:39.675Z,17.89
2023-02-19T07:40:06.029Z,18.36
2023-02-19T07:42:39.360Z,18.56
2023-02-19T07:45:06.631Z,18.62
2023-02-19T07:47:33.126Z,18.66
2023-02-19T07:50:06.354Z,18.64
2023-02-19T07:52:33.600Z,18.65
2023-02-19T07:58:00.352Z,18.70
2023-02-19T08:00:33.353Z,18.69
2023-02-19T08:02:59.713Z,18.62
2023-02-19T08:05:26.206Z,18.63
2023-02-19T08:07:59.381Z,18.63
2023-02-19T08:13:17.369Z,18.55
2023-02-19T08:15:44.773Z,18.54
2023-02-19T08:18:18.413Z,18.56
2023-02-19T08:20:45.834Z,18.54
2023-02-19T08:23:12.286Z,18.58
2023-02-19T08:28:40.541Z,18.63
2023-02-19T08:31:13.702Z,18.64
2023-02-19T08:33:41.367Z,18.66
2023-02-19T08:36:15.378Z,18.65
2023-02-19T08:38:42.732Z,18.67
2023-02-19T08:41:09.686Z,18.64
2023-02-19T08:43:42.391Z,18.69
2023-02-19T08:46:09.712Z,18.74
2023-02-19T08:48:42.550Z,18.74
2023-02-19T08:51:09.971Z,18.73
2023-02-19T08:53:43.386Z,18.75
2023-02-19T08:59:02.394Z,18.77
2023-02-19T09:01:28.890Z,18.75
2023-02-19T09:03:57.332Z,18.75
2023-02-19T09:06:26.558Z,18.78
2023-02-19T09:08:55.754Z,18.78
2023-02-19T09:14:16.153Z,18.83
2023-02-19T09:16:44.451Z,18.77
2023-02-19T09:19:11.701Z,18.77
2023-02-19T09:21:40.880Z,18.73
2023-02-19T09:24:08.123Z,18.77
2023-02-19T09:29:18.433Z,18.80
2023-02-19T09:31:44.914Z,18.82
2023-02-19T09:34:11.380Z,18.00
2023-02-19T09:36:37.731Z,17.61
2023-02-19T09:39:04.131Z,17.62
2023-02-19T09:44:16.012Z,17.78
2023-02-19T09:46:42.384Z,17.69
2023-02-19T09:49:08.957Z,17.66
2023-02-19T09:51:35.317Z,17.65
2023-02-19T09:54:01.647Z,17.69
2023-02-19T09:59:21.923Z,17.72
2023-02-19T10:01:49.242Z,17.80
2023-02-19T10:04:15.626Z,17.97
2023-02-19T10:06:41.952Z,18.09
2023-02-19T10:09:08.322Z,19.57
2023-02-19T10:14:28.573Z,18.69
2023-02-19T10:16:54.952Z,18.19
2023-02-19T10:19:21.315Z,18.22
2023-02-19T10:21:47.676Z,18.06
2023-02-19T10:24:14.027Z,17.84
2023-02-19T10:29:34.214Z,17.85
2023-02-19T10:32:00.772Z,17.96
2023-02-19T10:34:27.179Z,17.87
2023-02-19T10:36:53.537Z,18.08
2023-02-19T10:39:20.770Z,17.90
2023-02-19T10:44:31.229Z,17.87
2023-02-19T10:46:57.575Z,18.21
2023-02-19T10:49:23.930Z,17.96
2023-02-19T10:51:50.302Z,17.96
2023-02-19T10:54:16.686Z,17.85
2023-02-19T10:59:26.992Z,17.93
2023-02-19T11:01:53.353Z,17.98
2023-02-19T11:04:19.762Z,17.85
2023-02-19T11:06:46.144Z,17.73
2023-02-19T11:09:13.361Z,17.73
2023-02-19T11:14:24.145Z,17.68
2023-02-19T11:16:50.543Z,17.67
2023-02-19T11:19:16.896Z,17.68
2023-02-19T11:21:43.249Z,17.60
2023-02-19T11:24:09.606Z,17.66
2023-02-19T11:29:30.171Z,17.66
2023-02-19T11:31:56.620Z,17.66
2023-02-19T11:34:23.044Z,17.64
2023-02-19T11:36:49.385Z,17.59
2023-02-19T11:39:15.737Z,17.62
2023-02-19T11:44:36.024Z,17.62
2023-02-19T11:47:02.390Z,17.43
2023-02-19T11:49:28.732Z,17.31
2023-02-19T11:51:55.044Z,17.29
2023-02-19T11:54:21.410Z,17.23
2023-02-19T11:59:32.126Z,17.29
2023-02-19T12:01:58.541Z,17.31
2023-02-19T12:04:24.936Z,17.27
2023-02-19T12:06:51.359Z,17.24
2023-02-19T12:09:17.772Z,17.15
2023-02-19T12:11:44.089Z,17.13
2023-02-19T12:14:10.525Z,17.17
2023-02-19T12:16:36.894Z,17.20
2023-02-19T12:19:03.264Z,17.16
2023-02-19T12:21:29.616Z,17.13
2023-02-19T12:23:55.955Z,17.13
2023-02-19T12:26:22.298Z,17.12
2023-02-19T12:28:48.644Z,17.12
2023-02-19T12:31:15.101Z,17.15
2023-02-19T12:33:41.518Z,17.11
2023-02-19T12:36:07.874Z,17.09
2023-02-19T12:38:34.245Z,17.05
2023-02-19T12:41:00.602Z,17.04
2023-02-19T12:43:26.965Z,17.08
2023-02-19T12:45:53.382Z,17.09
2023-02-19T12:48:19.797Z,17.09
2023-02-19T12:50:46.163Z,17.15
2023-02-19T12:53:12.565Z,17.19
2023-02-19T12:55:38.942Z,17.29
2023-02-19T12:58:05.287Z,17.18
2023-02-19T13:00:31.659Z,17.19
2023-02-19T13:02:58.007Z,17.20
2023-02-19T13:05:24.345Z,17.23
2023-02-19T13:07:50.852Z,17.26
2023-02-19T13:10:18.046Z,17.18
2023-02-19T13:12:44.409Z,17.14
2023-02-19T13:18:04.895Z,17.27
2023-02-19T13:20:31.385Z,17.17
2023-02-19T13:22:57.773Z,17.21
2023-02-19T13:25:24.086Z,17.19
2023-02-19T13:27:50.469Z,16.78
2023-02-19T13:33:00.955Z,17.17
2023-02-19T13:35:27.307Z,17.20
2023-02-19T13:37:53.685Z,17.25
2023-02-19T13:40:20.082Z,17.26
2023-02-19T13:42:46.460Z,17.20
2023-02-19T13:47:56.821Z,17.20
2023-02-19T13:50:25.992Z,17.39
2023-02-19T13:52:55.134Z,17.20
2023-02-19T13:55:21.506Z,17.28
2023-02-19T13:57:47.853Z,17.41
2023-02-19T14:03:08.296Z,17.46
2023-02-19T14:05:34.651Z,17.18
2023-02-19T14:08:01.122Z,17.25
2023-02-19T14:10:27.518Z,17.09
2023-02-19T14:12:53.859Z,17.15
2023-02-19T14:18:14.935Z,17.11
2023-02-19T14:20:42.165Z,17.07
2023-02-19T14:23:08.558Z,17.09
2023-02-19T14:25:34.932Z,17.08
2023-02-19T14:28:01.251Z,17.21
2023-02-19T14:33:21.366Z,17.41
2023-02-19T14:35:47.750Z,17.24
2023-02-19T14:38:14.136Z,17.11
2023-02-19T14:40:40.560Z,17.07
2023-02-19T14:43:07.829Z,17.25
2023-02-19T14:48:18.381Z,18.04
2023-02-19T14:50:44.781Z,18.17
2023-02-19T14:53:11.220Z,18.33
2023-02-19T14:55:38.453Z,18.30
2023-02-19T14:58:05.726Z,18.39
2023-02-19T15:03:17.172Z,18.49
2023-02-19T15:05:43.518Z,18.43
2023-02-19T15:08:09.941Z,18.55
2023-02-19T15:10:36.358Z,18.53
2023-02-19T15:13:02.749Z,18.49
2023-02-19T15:18:12.870Z,18.53
2023-02-19T15:20:40.110Z,18.49
2023-02-19T15:23:06.513Z,18.47
2023-02-19T15:25:32.897Z,18.46
2023-02-19T15:27:59.270Z,18.43
2023-02-19T15:33:19.410Z,18.45
2023-02-19T15:35:45.750Z,18.49
2023-02-19T15:38:12.993Z,18.51
2023-02-19T15:40:39.351Z,18.50
2023-02-19T15:43:05.735Z,18.46
2023-02-19T15:45:32.110Z,18.52
2023-02-19T15:47:58.456Z,18.47
2023-02-19T15:50:24.833Z,18.49
2023-02-19T15:52:51.250Z,18.55
2023-02-19T15:55:18.579Z,18.54
2023-02-19T15:57:44.938Z,18.70
2023-02-19T16:00:13.347Z,18.64
2023-02-19T16:02:39.704Z,18.67
2023-02-19T16:05:06.352Z,18.76
2023-02-19T16:07:32.697Z,18.72
2023-02-19T16:09:59.064Z,18.72
2023-02-19T16:12:25.417Z,18.71
2023-02-19T16:14:51.780Z,18.69
2023-02-19T16:17:18.961Z,18.75
2023-02-19T16:19:45.663Z,18.71
2023-02-19T16:22:12.123Z,18.76
2023-02-19T16:24:41.285Z,18.83
2023-02-19T16:27:07.848Z,18.78
2023-02-19T16:29:36.094Z,18.79
2023-02-19T16:32:03.482Z,18.84
2023-02-19T16:34:29.887Z,18.84
2023-02-19T16:36:56.238Z,18.88
2023-02-19T16:39:22.573Z,18.73
2023-02-19T16:41:48.909Z,18.64
2023-02-19T16:44:15.454Z,18.57
2023-02-19T16:46:41.900Z,18.52
2023-02-19T16:49:08.282Z,18.49
2023-02-19T16:51:34.656Z,18.50
2023-02-19T16:54:00.977Z,18.47
2023-02-19T16:56:27.353Z,18.43
2023-02-19T16:58:53.701Z,18.44
2023-02-19T17:01:21.010Z,18.40
2023-02-19T17:06:31.395Z,18.45
2023-02-19T17:08:58.614Z,18.42
2023-02-19T17:11:24.944Z,18.44
2023-02-19T17:13:52.444Z,18.37
2023-02-19T17:16:19.757Z,18.38
2023-02-19T17:21:30.004Z,18.35
2023-02-19T17:23:56.369Z,18.38
2023-02-19T17:26:22.711Z,18.39
2023-02-19T17:28:49.048Z,18.39
2023-02-19T17:31:16.327Z,18.33
2023-02-19T17:36:26.967Z,18.33
2023-02-19T17:38:53.311Z,18.29
2023-02-19T17:41:19.654Z,18.39
2023-02-19T17:43:46.029Z,18.33
2023-02-19T17:46:12.433Z,18.31
2023-02-19T17:51:32.797Z,18.33
2023-02-19T17:53:59.314Z,18.29
2023-02-19T17:56:25.703Z,18.35
2023-02-19T17:58:52.064Z,18.31
2023-02-19T18:01:18.446Z,18.33
2023-02-19T18:06:28.755Z,18.35
2023-02-19T18:08:55.117Z,18.33
2023-02-19T18:11:21.463Z,18.32
2023-02-19T18:13:47.999Z,18.29
2023-02-19T18:16:14.354Z,18.32
2023-02-19T18:21:24.905Z,18.27
2023-02-19T18:23:51.259Z,18.28
2023-02-19T18:26:17.640Z,18.30
2023-02-19T18:28:43.991Z,18.27
2023-02-19T18:31:11.047Z,18.30
2023-02-19T18:36:21.786Z,18.24
2023-02-19T18:38:48.144Z,18.29
2023-02-19T18:41:14.846Z,18.25
2023-02-19T18:43:41.411Z,18.29
2023-02-19T18:46:07.825Z,18.27
2023-02-19T18:48:34.548Z,18.26
2023-02-19T18:51:00.899Z,18.31
2023-02-19T18:53:27.247Z,18.23
2023-02-19T18:55:53.664Z,18.28
2023-02-19T18:58:20.019Z,18.24
2023-02-19T19:00:46.386Z,18.31
2023-02-19T19:03:12.804Z,18.36
2023-02-19T19:05:39.182Z,18.37
2023-02-19T19:08:05.582Z,18.34
2023-02-19T19:10:31.983Z,18.40
2023-02-19T19:12:58.477Z,18.39
2023-02-19T19:15:24.933Z,18.42
2023-02-19T19:17:51.358Z,18.40
2023-02-19T19:20:17.758Z,18.44
2023-02-19T19:22:44.154Z,18.42
2023-02-19T19:25:10.809Z,18.40
2023-02-19T19:27:37.173Z,18.43
2023-02-19T19:30:03.577Z,18.42
2023-02-19T19:32:29.981Z,18.46
2023-02-19T19:34:56.527Z,18.40
2023-02-19T19:37:22.875Z,18.46
2023-02-19T19:39:49.220Z,18.46
2023-02-19T19:42:15.738Z,18.46
2023-02-19T19:44:42.126Z,18.49
2023-02-19T19:47:08.479Z,18.46
2023-02-19T19:49:34.819Z,18.47
2023-02-19T19:54:45.461Z,18.45
2023-02-19T19:57:12.691Z,18.43
2023-02-19T19:59:39.047Z,18.38
2023-02-19T20:02:05.604Z,18.37
2023-02-19T20:04:31.958Z,18.39
2023-02-19T20:09:41.967Z,18.30
2023-02-19T20:12:08.307Z,18.30
2023-02-19T20:14:34.695Z,18.27
2023-02-19T20:17:01.024Z,18.31
2023-02-19T20:19:27.391Z,18.29
2023-02-19T20:24:38.757Z,18.31
2023-02-19T20:27:05.910Z,18.36
2023-02-19T20:29:32.289Z,18.48
2023-02-19T20:31:58.691Z,18.93
2023-02-19T20:34:25.064Z,19.75
2023-02-19T20:39:45.485Z,19.85
2023-02-19T20:42:16.668Z,19.73
2023-02-19T20:44:43.225Z,20.35
2023-02-19T20:47:09.571Z,19.90
2023-02-19T20:49:35.946Z,19.80
2023-02-19T20:54:46.166Z,19.66
2023-02-19T20:57:12.533Z,19.84
2023-02-19T20:59:38.909Z,20.04
2023-02-19T21:02:05.339Z,19.41
2023-02-19T21:04:31.717Z,19.73
2023-02-19T21:09:51.923Z,19.70
2023-02-19T21:12:18.324Z,19.67
2023-02-19T21:14:44.680Z,19.29
2023-02-19T21:17:11.104Z,19.21
2023-02-19T21:19:37.446Z,19.16
2023-02-19T21:24:57.838Z,19.72
2023-02-19T21:27:24.227Z,19.33
2023-02-19T21:29:50.589Z,19.40
2023-02-19T21:32:17.090Z,19.57
2023-02-19T21:34:43.531Z,19.29
2023-02-19T21:40:06.387Z,19.21
2023-02-19T21:42:32.904Z,19.24
2023-02-19T21:45:02.038Z,19.27
2023-02-19T21:47:28.380Z,19.95
2023-02-19T21:49:57.561Z,20.05
2023-02-19T21:55:08.672Z,19.83
2023-02-19T21:57:35.086Z,20.20
2023-02-19T22:00:01.595Z,20.06
2023-02-19T22:02:29.007Z,19.99
2023-02-19T22:04:55.467Z,20.14
2023-02-19T22:10:17.003Z,20.35
2023-02-19T22:12:44.719Z,19.70
2023-02-19T22:15:12.148Z,19.58
2023-02-19T22:17:38.635Z,19.55
2023-02-19T22:20:05.128Z,19.67
2023-02-19T22:25:16.405Z,18.93
2023-02-19T22:27:42.848Z,18.81
2023-02-19T22:30:12.103Z,18.82
2023-02-19T22:32:41.374Z,18.59
2023-02-19T22:35:07.879Z,18.68
2023-02-19T22:37:34.366Z,18.68
2023-02-19T22:40:00.744Z,18.78
2023-02-19T22:42:27.153Z,18.69
2023-02-19T22:44:53.523Z,18.68
2023-02-19T22:47:20.774Z,18.81
2023-02-19T22:49:47.119Z,18.68
2023-02-19T22:52:13.469Z,18.64
2023-02-19T22:54:39.811Z,18.58
2023-02-19T22:57:06.191Z,18.67
2023-02-19T22:59:32.597Z,18.65
2023-02-19T23:01:58.937Z,18.80
2023-02-19T23:04:25.343Z,18.93
2023-02-19T23:06:51.837Z,18.83
2023-02-19T23:09:18.431Z,18.94
2023-02-19T23:11:44.887Z,18.86
2023-02-19T23:14:11.324Z,18.73
2023-02-19T23:16:38.740Z,18.73
2023-02-19T23:19:06.014Z,18.76
2023-02-19T23:21:34.294Z,18.71
2023-02-19T23:24:00.759Z,18.74
2023-02-19T23:26:27.980Z,18.57
2023-02-19T23:28:54.311Z,18.63
2023-02-19T23:31:20.741Z,18.63
2023-02-19T23:33:47.099Z,18.63
2023-02-19T23:36:13.781Z,18.68
2023-02-19T23:38:40.288Z,18.68
2023-02-19T23:43:50.466Z,18.68
2023-02-19T23:46:17.019Z,18.61
2023-02-19T23:48:43.439Z,18.64
2023-02-19T23:51:09.809Z,18.65
2023-02-19T23:53:38.918Z,18.63
2023-02-19T23:58:49.048Z,18.70
